Overview Statistics Trail Chart Weather Telemetry Raw packets
 

This is the latest recevied weather packets stored in our database for station/object R2AJV-13. If no packets are shown the sender has not sent any weather packets the latest 10 day(s).

<< 17 18 19 20 21 22 23 >>
Time Temp. Humidity Pressure Rain* Wind** Luminosity Snow
1788004530 22.78° C 59% 1010.6 hPa 0 mm - - -
1788003618 22.78° C 58% 1010.7 hPa 0 mm - - -
1788002769 21.67° C 63% 1010.8 hPa 0 mm - - -
1788001858 21.11° C 65% 1010.9 hPa 0 mm - - -
1788000947 22.22° C 62% 1011.1 hPa 0 mm - - -
1788000042 21.67° C 62% 1011.2 hPa 0 mm - - -
1787999133 22.22° C 62% 1011.2 hPa 0 mm - - -
1787998221 21.11° C 64% 1011.3 hPa 0 mm - - -
1787997370 21.11° C 65% 1011.4 hPa 0 mm - - -
1787996466 20.56° C 66% 1011.4 hPa 0 mm - - -
1787995555 20.56° C 66% 1011.4 hPa 0 mm - - -
1787995130 20.56° C 66% 1011.4 hPa 0 mm - - -
1787985949 18.33° C 72% 1012 hPa 0 mm - - -
1787985038 17.78° C 75% 1012.1 hPa 0 mm - - -
1787984131 17.22° C 77% 1011.9 hPa 0 mm - - -
1787983217 16.67° C 79% 1012 hPa 0 mm - - -
1787982366 15.56° C 82% 1012.2 hPa 0 mm - - -
1787981462 13.89° C 90% 1012.3 hPa 0 mm - - -
1787980550 12.78° C 93% 1012.4 hPa 0 mm - - -
1787979667 12.78° C 95% 1012.6 hPa 0 mm - - -
1787978762 12.22° C 97% 1012.5 hPa 0 mm - - -
1787977854 11.67° C 98% 1012.5 hPa 0 mm - - -
1787976941 11.11° C 99% 1012.6 hPa 0 mm - - -
1787976030 11.11° C 99% 1012.4 hPa 0 mm - - -
1787975125 10.56° C 99% 1012.5 hPa 0 mm - - -

* Rain latest hour (hover to see other rain measurements)
** Current wind speed in m/s (hover to see current wind gust speed)